Time;durP1;ratioP1;P1;durP2;ratioP2;P2;SDS_P1;SDS_P2;PMS_P1;PMS_P2;Temp;Humidity;BMP_temperature;BMP_pressure;BME280_temperature;BME280_humidity;BME280_pressure;Samples;Min_cycle;Max_cycle;Signal;HPM_P1;HPM_P2
2023/01/05 00:01:20;;;;;;;78.83;26.30;;;0.10;99.90;;;;;;4211800;28;20341;-64
2023/01/05 00:03:21;;;;;;;208.03;32.90;;;0.00;99.90;;;;;;4212397;28;20310;-61
2023/01/05 00:05:22;;;;;;;124.90;27.27;;;0.00;99.90;;;;;;4211329;28;20326;-61
2023/01/05 00:07:23;;;;;;;142.90;29.30;;;-0.10;99.90;;;;;;4212599;28;20299;-61
2023/01/05 00:09:24;;;;;;;121.07;30.90;;;-0.10;99.90;;;;;;4211085;28;20273;-60
2023/01/05 00:23:13;;;;;;;74.87;26.60;;;0.00;99.90;;;;;;4210842;28;20349;-61
2023/01/05 00:25:25;;;;;;;177.10;31.53;;;0.00;99.90;;;;;;4212264;28;20322;-62
2023/01/05 00:27:28;;;;;;;245.97;35.40;;;0.00;99.90;;;;;;4210952;28;20291;-63
2023/01/05 00:29:29;;;;;;;315.73;35.77;;;0.10;99.90;;;;;;4211543;28;20334;-66
2023/01/05 00:31:31;;;;;;;203.50;30.17;;;0.00;99.90;;;;;;4211052;28;20268;-65
2023/01/05 00:33:32;;;;;;;151.67;28.90;;;0.00;99.90;;;;;;4212218;28;20264;-63
2023/01/05 00:35:33;;;;;;;229.20;32.57;;;0.00;99.90;;;;;;4209988;28;20691;-65
2023/01/05 00:37:36;;;;;;;106.07;28.20;;;0.10;99.90;;;;;;4212109;28;20277;-64
2023/01/05 00:39:38;;;;;;;223.30;35.50;;;0.10;99.90;;;;;;4210632;28;20273;-62
2023/01/05 00:41:39;;;;;;;71.83;28.07;;;0.10;99.90;;;;;;4211686;28;20749;-62
2023/01/05 00:43:40;;;;;;;80.17;29.10;;;0.20;99.90;;;;;;4210739;28;20281;-64
2023/01/05 00:45:41;;;;;;;114.47;29.87;;;0.30;99.90;;;;;;4211420;28;20687;-66
2023/01/05 00:47:42;;;;;;;54.57;27.17;;;0.30;99.90;;;;;;4210354;28;20277;-62
2023/01/05 00:49:43;;;;;;;89.93;28.10;;;0.40;99.90;;;;;;4204204;28;20269;-62
2023/01/05 00:51:44;;;;;;;84.57;30.27;;;0.40;99.90;;;;;;4205626;28;20265;-60
2023/01/05 00:53:47;;;;;;;61.17;27.07;;;0.50;99.90;;;;;;4210689;28;20752;-63
2023/01/05 00:55:56;;;;;;;118.30;29.17;;;0.50;99.90;;;;;;4211795;28;20278;-62
2023/01/05 00:57:57;;;;;;;48.07;24.90;;;0.60;99.90;;;;;;4210450;28;20272;-65
2023/01/05 01:00:00;;;;;;;60.43;26.40;;;0.50;99.90;;;;;;4211545;28;20354;-60
2023/01/05 01:02:02;;;;;;;52.70;25.33;;;0.60;99.90;;;;;;4210526;28;20809;-62
2023/01/05 01:04:03;;;;;;;58.10;25.50;;;0.60;99.90;;;;;;4211524;28;20269;-65
2023/01/05 01:06:04;;;;;;;85.57;24.30;;;0.60;99.90;;;;;;4210519;28;20292;-62
2023/01/05 01:08:05;;;;;;;52.87;24.67;;;0.60;99.90;;;;;;4211820;28;20273;-62
2023/01/05 01:10:07;;;;;;;50.43;24.87;;;0.60;99.90;;;;;;4210472;28;20598;-62
2023/01/05 01:12:09;;;;;;;58.37;24.53;;;0.60;99.90;;;;;;4211846;28;20310;-65
2023/01/05 01:14:12;;;;;;;50.40;22.90;;;0.60;99.90;;;;;;4210471;28;20678;-64
2023/01/05 01:16:15;;;;;;;40.93;22.73;;;0.50;99.90;;;;;;4211346;28;20318;-66
2023/01/05 01:18:16;;;;;;;43.73;23.13;;;0.60;99.90;;;;;;4210597;28;20249;-62
2023/01/05 01:20:17;;;;;;;48.27;24.87;;;0.60;99.90;;;;;;4210526;28;20314;-61
2023/01/05 01:22:19;;;;;;;41.73;23.37;;;0.70;99.90;;;;;;4210587;28;20670;-62
2023/01/05 01:24:26;;;;;;;45.37;25.03;;;0.80;99.90;;;;;;4209374;28;20358;-63
2023/01/05 01:26:27;;;;;;;46.67;24.10;;;0.80;99.90;;;;;;4210395;28;20289;-62
2023/01/05 01:28:28;;;;;;;41.87;22.83;;;0.80;99.90;;;;;;4210553;28;20667;-65
2023/01/05 01:30:29;;;;;;;42.77;22.73;;;0.80;99.90;;;;;;4210905;28;20269;-62
2023/01/05 01:32:30;;;;;;;40.53;23.03;;;0.80;99.90;;;;;;4209963;28;20752;-63
2023/01/05 01:34:31;;;;;;;42.47;23.43;;;0.80;99.90;;;;;;4211450;28;20260;-62
2023/01/05 01:36:32;;;;;;;45.50;23.10;;;0.90;99.90;;;;;;4210317;28;20265;-62
2023/01/05 01:38:34;;;;;;;48.80;24.00;;;0.90;99.90;;;;;;4210806;28;20257;-62
2023/01/05 01:40:40;;;;;;;44.83;24.43;;;1.00;99.90;;;;;;4209478;28;20272;-65
2023/01/05 01:42:41;;;;;;;43.43;23.10;;;1.00;99.90;;;;;;4211424;28;20276;-60
2023/01/05 01:45:21;;;;;;;39.40;22.53;;;1.00;99.90;;;;;;4210003;28;20269;-67
2023/01/05 01:47:46;;;;;;;44.05;22.67;;;1.00;99.90;;;;;;4210585;28;20300;-62
2023/01/05 01:49:48;;;;;;;41.23;22.43;;;1.00;99.90;;;;;;4209635;28;20036;-62
2023/01/05 01:51:49;;;;;;;40.90;22.57;;;1.00;99.90;;;;;;4210233;28;20299;-63
2023/01/05 01:53:54;;;;;;;42.73;22.13;;;1.00;99.90;;;;;;4209347;28;20346;-62
2023/01/05 01:55:59;;;;;;;42.43;23.83;;;1.00;99.90;;;;;;4210651;28;20334;-66
2023/01/05 01:58:05;;;;;;;50.80;25.00;;;1.10;99.90;;;;;;4209185;28;20679;-61
2023/01/05 02:00:09;;;;;;;50.40;26.77;;;1.00;99.90;;;;;;4210272;28;20276;-63
2023/01/05 02:02:11;;;;;;;49.53;25.27;;;0.90;99.90;;;;;;4209891;28;20269;-62
2023/01/05 02:04:12;;;;;;;49.33;24.80;;;0.90;99.90;;;;;;4210914;28;20345;-61
2023/01/05 02:06:13;;;;;;;43.83;25.77;;;0.90;99.90;;;;;;4209385;28;20783;-65
2023/01/05 02:08:15;;;;;;;50.93;27.03;;;0.90;99.90;;;;;;4210129;28;20284;-62
2023/01/05 02:10:24;;;;;;;47.63;26.13;;;1.00;99.90;;;;;;4209575;28;20277;-66
2023/01/05 02:12:28;;;;;;;47.93;25.37;;;1.00;99.90;;;;;;4196344;28;20453;-65
2023/01/05 02:14:47;;;;;;;45.30;25.13;;;0.90;99.90;;;;;;4210185;28;20302;-62
2023/01/05 02:17:14;;;;;;;52.33;27.97;;;0.90;99.90;;;;;;4211417;28;20264;-63
2023/01/05 02:19:40;;;;;;;45.40;26.27;;;0.90;99.90;;;;;;4145501;28;20346;-62
2023/01/05 02:22:19;;;;;;;55.27;29.40;;;0.90;99.90;;;;;;4210870;28;20269;-64
2023/01/05 02:25:01;;;;;;;59.37;30.30;;;0.90;99.90;;;;;;4209324;28;20655;-62
2023/01/05 02:27:32;;;;;;;51.53;26.87;;;0.90;99.90;;;;;;4209182;28;20285;-64
2023/01/05 02:29:50;;;;;;;53.77;27.57;;;1.00;99.90;;;;;;4207538;28;20296;-64
2023/01/05 02:31:54;;;;;;;56.23;29.47;;;1.10;99.90;;;;;;4209471;28;20527;-65
2023/01/05 02:34:14;;;;;;;55.70;29.57;;;1.10;99.90;;;;;;4210681;28;20346;-65
2023/01/05 02:36:28;;;;;;;51.30;26.17;;;1.20;99.90;;;;;;4211694;28;20331;-64
2023/01/05 02:38:52;;;;;;;51.37;27.70;;;1.20;99.90;;;;;;4213684;28;20432;-65
2023/01/05 02:40:58;;;;;;;50.53;26.33;;;1.20;99.90;;;;;;4212449;28;20323;-62
2023/01/05 02:43:02;;;;;;;47.80;25.27;;;1.30;99.90;;;;;;4213339;28;20284;-65
2023/01/05 02:45:05;;;;;;;50.27;26.57;;;1.30;99.90;;;;;;4212757;28;20264;-66
2023/01/05 02:47:26;;;;;;;48.27;26.03;;;1.40;99.90;;;;;;4214064;28;20285;-63
2023/01/05 02:49:30;;;;;;;51.67;25.92;;;1.40;99.90;;;;;;4209128;28;20280;-66
2023/01/05 02:51:44;;;;;;;50.40;25.93;;;1.40;99.90;;;;;;4213966;28;20430;-64
2023/01/05 02:53:52;;;;;;;51.53;26.83;;;1.40;99.90;;;;;;4212747;28;20802;-64
2023/01/05 02:56:02;;;;;;;48.50;26.63;;;1.30;99.90;;;;;;4213721;28;20269;-66
2023/01/05 02:58:10;;;;;;;48.35;25.83;;;1.30;99.90;;;;;;4212342;28;20333;-60
2023/01/05 03:00:18;;;;;;;49.87;25.50;;;1.30;99.90;;;;;;4196420;28;20082;-60
2023/01/05 03:02:27;;;;;;;51.73;26.77;;;1.20;99.90;;;;;;4199390;28;20260;-63
2023/01/05 03:04:35;;;;;;;54.60;27.60;;;1.20;99.90;;;;;;4212976;28;20326;-66
2023/01/05 03:07:03;;;;;;;53.00;28.40;;;1.20;99.90;;;;;;4212343;28;20742;-61
2023/01/05 03:09:05;;;;;;;48.73;26.43;;;1.10;99.90;;;;;;4200449;28;20339;-65
2023/01/05 03:13:40;;;;;;;52.27;27.83;;;1.10;99.90;;;;;;4213618;28;20350;-61
2023/01/05 03:15:44;;;;;;;56.47;28.03;;;1.10;99.90;;;;;;4212275;28;20281;-62
2023/01/05 03:17:54;;;;;;;49.33;26.67;;;1.10;99.90;;;;;;4212567;28;20311;-61
2023/01/05 03:19:56;;;;;;;54.10;26.33;;;1.00;99.90;;;;;;4210990;28;20265;-65
2023/01/05 03:36:24;;;;;;;49.73;25.47;;;1.00;99.90;;;;;;4212607;28;20326;-61
2023/01/05 03:38:41;;;;;;;47.33;25.37;;;1.00;99.90;;;;;;4212517;28;20675;-64
2023/01/05 03:40:44;;;;;;;50.67;25.87;;;0.90;99.90;;;;;;4211943;28;20268;-67
2023/01/05 03:42:46;;;;;;;50.33;25.67;;;0.90;99.90;;;;;;4212117;28;20321;-66
2023/01/05 03:44:48;;;;;;;52.33;27.93;;;0.90;99.90;;;;;;4212573;28;20813;-65
2023/01/05 03:46:50;;;;;;;54.20;27.07;;;0.80;99.90;;;;;;4210602;28;20284;-64
2023/01/05 03:48:51;;;;;;;47.07;26.20;;;0.80;99.90;;;;;;4212546;28;20314;-64
2023/01/05 03:50:53;;;;;;;49.83;26.07;;;0.80;99.90;;;;;;4211149;28;20349;-65
2023/01/05 03:52:54;;;;;;;51.50;27.60;;;0.80;99.90;;;;;;4212430;28;20655;-62
2023/01/05 03:54:55;;;;;;;46.60;26.37;;;0.90;99.90;;;;;;4211202;28;20322;-65
2023/01/05 03:56:56;;;;;;;56.37;28.23;;;0.90;99.90;;;;;;4212246;28;20383;-65
2023/01/05 03:58:58;;;;;;;53.63;27.57;;;0.90;99.90;;;;;;4211087;28;20318;-62
2023/01/05 04:00:59;;;;;;;52.37;27.07;;;1.00;99.90;;;;;;4212323;28;20751;-62
2023/01/05 04:03:00;;;;;;;53.97;27.53;;;1.00;99.90;;;;;;4211520;28;20823;-65
2023/01/05 04:05:01;;;;;;;60.67;30.80;;;1.10;99.90;;;;;;4212360;28;20261;-62
2023/01/05 04:07:02;;;;;;;50.43;24.40;;;1.10;99.90;;;;;;4210721;28;20292;-62
2023/01/05 04:09:03;;;;;;;43.87;21.93;;;1.10;99.90;;;;;;4212585;28;20264;-67
2023/01/05 04:11:16;;;;;;;44.03;23.90;;;1.10;99.90;;;;;;4211170;28;20325;-65
2023/01/05 04:13:17;;;;;;;43.47;21.27;;;1.20;99.90;;;;;;4212180;28;20760;-67
2023/01/05 04:15:18;;;;;;;36.03;21.27;;;1.20;99.90;;;;;;4211178;28;20331;-63
2023/01/05 04:17:19;;;;;;;36.83;19.17;;;1.10;99.90;;;;;;4210944;28;20285;-66
2023/01/05 04:19:20;;;;;;;40.53;19.37;;;1.10;99.90;;;;;;4211570;28;20296;-66
2023/01/05 04:21:21;;;;;;;34.53;18.97;;;1.20;99.90;;;;;;4211616;28;20269;-66
2023/01/05 04:23:22;;;;;;;38.40;19.50;;;1.20;99.90;;;;;;4211922;28;20284;-64
2023/01/05 04:25:23;;;;;;;45.53;21.60;;;1.20;99.90;;;;;;4210893;28;20293;-65
2023/01/05 04:27:24;;;;;;;42.07;22.30;;;1.20;99.90;;;;;;4212395;28;20844;-66
2023/01/05 04:29:25;;;;;;;41.43;22.47;;;1.20;99.90;;;;;;4209907;28;20686;-66
2023/01/05 04:31:26;;;;;;;43.40;21.63;;;1.20;99.90;;;;;;4211190;28;20362;-67
2023/01/05 04:33:28;;;;;;;40.50;22.17;;;1.20;99.90;;;;;;4210280;28;20337;-61
2023/01/05 04:35:29;;;;;;;39.20;22.17;;;1.20;99.90;;;;;;4212030;28;20614;-66
2023/01/05 04:37:30;;;;;;;44.67;20.90;;;1.20;99.90;;;;;;4210977;28;20272;-66
2023/01/05 04:39:31;;;;;;;41.67;19.23;;;1.20;99.90;;;;;;4211522;28;20810;-62
2023/01/05 04:41:32;;;;;;;33.80;18.97;;;1.20;99.90;;;;;;4197342;28;20295;-64
2023/01/05 04:43:33;;;;;;;33.87;19.07;;;1.30;99.90;;;;;;4200424;28;20827;-65
2023/01/05 04:45:34;;;;;;;29.70;16.23;;;1.20;99.90;;;;;;4211005;28;20269;-64
2023/01/05 04:47:35;;;;;;;27.00;15.00;;;1.20;99.90;;;;;;4211303;28;20289;-67
2023/01/05 04:49:36;;;;;;;30.00;14.93;;;1.30;99.90;;;;;;4211195;28;20305;-62
2023/01/05 04:51:37;;;;;;;33.93;18.30;;;1.30;99.90;;;;;;4210349;28;20277;-65
2023/01/05 04:53:39;;;;;;;29.03;17.00;;;1.30;99.90;;;;;;4211726;28;20586;-60
2023/01/05 04:55:40;;;;;;;35.87;20.10;;;1.40;99.90;;;;;;4210634;28;20317;-61
2023/01/05 04:57:41;;;;;;;38.10;21.40;;;1.40;99.90;;;;;;4192839;28;20626;-60
2023/01/05 04:59:42;;;;;;;41.87;20.10;;;1.40;99.90;;;;;;4209536;28;20357;-61
2023/01/05 05:01:43;;;;;;;35.40;19.73;;;1.40;99.90;;;;;;4211268;28;20760;-63
2023/01/05 05:03:44;;;;;;;32.27;17.30;;;1.50;99.90;;;;;;4210081;28;20273;-65
2023/01/05 05:05:45;;;;;;;29.10;16.50;;;1.50;99.90;;;;;;4178175;28;20923;-62
2023/01/05 05:07:46;;;;;;;31.77;17.93;;;1.50;99.90;;;;;;4209433;28;20296;-63
2023/01/05 05:09:48;;;;;;;29.43;16.50;;;1.50;99.90;;;;;;4210461;28;20285;-65
2023/01/05 05:11:50;;;;;;;28.03;15.60;;;1.40;99.90;;;;;;4209017;28;20306;-62
2023/01/05 05:13:51;;;;;;;28.73;15.70;;;1.50;99.90;;;;;;4211309;28;20310;-62
2023/01/05 05:15:52;;;;;;;32.23;16.17;;;1.50;99.90;;;;;;4210614;28;20325;-64
2023/01/05 05:17:53;;;;;;;28.60;16.00;;;1.50;99.90;;;;;;4210006;28;20762;-61
2023/01/05 05:19:54;;;;;;;30.17;16.93;;;1.50;99.90;;;;;;4210879;28;20265;-61
2023/01/05 05:21:56;;;;;;;33.70;17.03;;;1.60;99.90;;;;;;4209814;28;20285;-61
2023/01/05 05:23:57;;;;;;;37.40;16.43;;;1.60;99.90;;;;;;4211221;28;20774;-62
2023/01/05 05:25:58;;;;;;;30.90;17.17;;;1.60;99.90;;;;;;4209889;28;20249;-62
2023/01/05 05:27:59;;;;;;;30.80;17.47;;;1.60;99.90;;;;;;4211288;28;20300;-62
2023/01/05 05:30:00;;;;;;;28.63;15.70;;;1.60;99.90;;;;;;4209549;28;20334;-61
2023/01/05 05:32:02;;;;;;;31.77;17.23;;;1.70;99.90;;;;;;4210495;28;20268;-61
2023/01/05 05:34:04;;;;;;;29.77;16.07;;;1.70;99.90;;;;;;4209613;28;20330;-62
2023/01/05 05:36:06;;;;;;;27.57;15.00;;;1.70;99.90;;;;;;4211080;28;20265;-62
2023/01/05 05:38:07;;;;;;;29.60;15.77;;;1.70;99.90;;;;;;4209949;28;20298;-62
2023/01/05 05:40:09;;;;;;;28.77;15.63;;;1.80;99.90;;;;;;4210658;28;20333;-62
2023/01/05 05:42:10;;;;;;;26.70;15.37;;;1.80;99.90;;;;;;4210083;28;20288;-62
2023/01/05 05:44:11;;;;;;;29.07;16.30;;;1.80;99.90;;;;;;4210858;28;20334;-62
2023/01/05 05:46:12;;;;;;;29.70;14.67;;;1.80;99.90;;;;;;4208971;28;20322;-63
2023/01/05 05:48:14;;;;;;;25.93;15.67;;;1.80;99.90;;;;;;4209418;28;20342;-63
2023/01/05 05:50:15;;;;;;;27.87;14.20;;;1.80;99.90;;;;;;4210560;28;20253;-68
2023/01/05 05:52:16;;;;;;;22.83;13.23;;;1.80;99.90;;;;;;4210387;28;20729;-66
2023/01/05 05:54:17;;;;;;;22.57;12.97;;;1.70;99.90;;;;;;4210044;28;20265;-63
2023/01/05 05:56:18;;;;;;;23.57;13.87;;;1.70;99.90;;;;;;4209848;28;20261;-63
2023/01/05 05:58:19;;;;;;;28.30;15.90;;;1.70;99.90;;;;;;4211235;28;20273;-63
2023/01/05 06:00:21;;;;;;;26.10;14.83;;;1.80;99.90;;;;;;4209212;28;20326;-63
2023/01/05 06:02:22;;;;;;;28.80;15.03;;;1.80;99.90;;;;;;4192164;28;20343;-61
2023/01/05 06:04:23;;;;;;;30.47;16.43;;;1.80;99.90;;;;;;4209725;28;20257;-62
2023/01/05 06:06:24;;;;;;;30.57;17.20;;;1.90;99.90;;;;;;4210890;28;20268;-62
2023/01/05 06:08:26;;;;;;;33.50;18.67;;;1.90;99.90;;;;;;4209807;28;20864;-62
2023/01/05 06:10:27;;;;;;;35.83;19.80;;;1.90;99.90;;;;;;4212119;28;20270;-63
2023/01/05 06:12:28;;;;;;;32.87;18.60;;;1.90;99.90;;;;;;4212333;28;20264;-63
2023/01/05 06:14:29;;;;;;;33.30;18.40;;;1.90;99.90;;;;;;4212912;28;20272;-66
2023/01/05 06:16:30;;;;;;;28.30;16.97;;;2.00;99.90;;;;;;4212599;28;20268;-65
2023/01/05 06:18:31;;;;;;;26.57;15.73;;;2.00;99.90;;;;;;4212639;28;20318;-62
2023/01/05 06:20:33;;;;;;;23.27;13.50;;;1.90;99.90;;;;;;4213597;28;20736;-62
2023/01/05 06:22:34;;;;;;;23.80;14.03;;;1.90;99.90;;;;;;4213119;28;20354;-66
2023/01/05 06:24:35;;;;;;;26.67;15.57;;;1.90;99.90;;;;;;4213835;28;20276;-62
2023/01/05 06:26:36;;;;;;;26.50;14.73;;;1.90;99.90;;;;;;4212982;28;20269;-61
2023/01/05 06:28:37;;;;;;;26.77;15.00;;;1.90;99.90;;;;;;4213718;28;20276;-62
2023/01/05 06:30:38;;;;;;;28.80;16.10;;;1.90;99.90;;;;;;4211800;28;20268;-64
2023/01/05 06:32:39;;;;;;;24.40;14.90;;;1.90;99.90;;;;;;4213966;28;20302;-63
2023/01/05 06:34:40;;;;;;;25.37;14.87;;;1.90;99.90;;;;;;4212965;28;20314;-65
2023/01/05 06:36:41;;;;;;;27.77;16.77;;;1.90;99.90;;;;;;4213862;28;20310;-64
2023/01/05 06:38:43;;;;;;;26.60;15.87;;;1.90;99.90;;;;;;4212767;28;20265;-61
2023/01/05 06:40:46;;;;;;;33.13;16.33;;;1.90;99.90;;;;;;4213967;28;20291;-64
2023/01/05 06:42:47;;;;;;;33.20;17.50;;;2.00;99.90;;;;;;4212484;28;20293;-62
2023/01/05 06:44:48;;;;;;;27.23;15.93;;;2.00;99.90;;;;;;4213375;28;20291;-62
2023/01/05 06:46:49;;;;;;;28.67;17.30;;;2.00;99.90;;;;;;4212729;28;20249;-62
2023/01/05 06:48:50;;;;;;;30.63;17.33;;;2.00;99.90;;;;;;4213038;28;20291;-64
2023/01/05 06:50:51;;;;;;;30.50;18.93;;;2.10;99.90;;;;;;4211963;28;20291;-64
2023/01/05 06:52:52;;;;;;;30.33;18.27;;;2.10;99.90;;;;;;4212082;28;20314;-67
2023/01/05 06:54:54;;;;;;;35.27;19.43;;;2.10;99.90;;;;;;4213334;28;20654;-66
2023/01/05 06:56:55;;;;;;;34.13;18.20;;;2.10;99.90;;;;;;4212335;28;20282;-65
2023/01/05 06:58:56;;;;;;;33.97;20.03;;;2.10;99.90;;;;;;4212723;28;20760;-62
2023/01/05 07:00:57;;;;;;;34.07;19.37;;;2.20;99.90;;;;;;4211348;28;20253;-63
2023/01/05 07:02:58;;;;;;;26.87;16.40;;;2.20;99.90;;;;;;4194619;28;20281;-64
2023/01/05 07:04:59;;;;;;;26.47;17.13;;;2.20;99.90;;;;;;4212267;28;20333;-63
2023/01/05 07:07:00;;;;;;;29.83;17.23;;;2.30;99.90;;;;;;4213206;28;20338;-64
2023/01/05 07:09:02;;;;;;;27.10;15.70;;;2.30;99.90;;;;;;4211573;28;20641;-64
2023/01/05 07:11:03;;;;;;;28.00;16.90;;;2.30;99.90;;;;;;4213348;28;20325;-63
2023/01/05 07:13:04;;;;;;;32.23;16.13;;;2.30;99.90;;;;;;4212250;28;20342;-64
2023/01/05 07:15:06;;;;;;;29.27;16.60;;;2.40;99.90;;;;;;4212555;28;20264;-67
2023/01/05 07:17:08;;;;;;;36.80;20.90;;;2.40;99.90;;;;;;4212285;28;20302;-63
2023/01/05 07:19:09;;;;;;;29.00;17.20;;;2.40;99.90;;;;;;4212616;28;20353;-62
2023/01/05 07:21:10;;;;;;;33.87;18.03;;;2.40;99.90;;;;;;4211969;28;20326;-62
2023/01/05 07:23:12;;;;;;;29.57;18.30;;;2.50;99.90;;;;;;4212456;28;20350;-63
2023/01/05 07:25:13;;;;;;;27.40;17.10;;;2.50;99.90;;;;;;4212797;28;20269;-62
2023/01/05 07:27:14;;;;;;;30.97;18.23;;;2.50;99.90;;;;;;4210682;28;20292;-65
2023/01/05 07:29:16;;;;;;;29.07;17.60;;;2.50;99.90;;;;;;4212493;28;20334;-64
2023/01/05 07:31:17;;;;;;;30.97;18.67;;;2.60;99.90;;;;;;4211206;28;20302;-63
2023/01/05 07:33:18;;;;;;;29.90;18.27;;;2.70;99.90;;;;;;4213189;28;20805;-64
2023/01/05 07:35:19;;;;;;;26.13;16.17;;;2.70;99.90;;;;;;4211917;28;20327;-64
2023/01/05 07:37:20;;;;;;;26.33;15.73;;;2.80;99.90;;;;;;4213070;28;20337;-62
2023/01/05 07:39:22;;;;;;;31.00;16.57;;;2.80;99.90;;;;;;4210969;28;20320;-61
2023/01/05 07:41:23;;;;;;;26.77;15.27;;;2.90;99.90;;;;;;4213023;28;20659;-66
2023/01/05 07:43:24;;;;;;;28.87;17.73;;;2.90;99.90;;;;;;4211760;28;20299;-62
2023/01/05 07:45:25;;;;;;;26.23;16.80;;;3.00;99.90;;;;;;4211865;28;20280;-67
2023/01/05 07:47:26;;;;;;;31.47;16.77;;;3.00;99.90;;;;;;4211543;28;20333;-62
2023/01/05 07:49:28;;;;;;;36.90;16.87;;;3.10;99.90;;;;;;4212421;28;20277;-62
2023/01/05 07:51:29;;;;;;;32.50;17.50;;;3.10;99.90;;;;;;4211350;28;20244;-63
2023/01/05 07:53:32;;;;;;;25.93;15.17;;;3.10;99.90;;;;;;4211812;28;20314;-65
2023/01/05 07:55:33;;;;;;;38.97;17.80;;;3.20;99.90;;;;;;4211997;28;20281;-61
2023/01/05 07:57:34;;;;;;;32.87;17.30;;;3.20;99.90;;;;;;4211640;28;20302;-63
2023/01/05 07:59:35;;;;;;;28.37;16.83;;;3.20;99.90;;;;;;4212420;28;20290;-62
2023/01/05 08:01:36;;;;;;;25.33;15.20;;;3.30;99.90;;;;;;4211237;28;20736;-63
2023/01/05 08:03:39;;;;;;;30.97;15.40;;;3.30;99.90;;;;;;4212577;28;20322;-61
2023/01/05 08:05:40;;;;;;;29.13;16.43;;;3.40;99.90;;;;;;4211165;28;21901;-66
2023/01/05 08:07:41;;;;;;;27.90;15.30;;;3.40;99.90;;;;;;4212552;28;20304;-62
2023/01/05 08:12:02;;;;;;;25.80;13.97;;;3.50;99.90;;;;;;4212744;28;20682;-62
2023/01/05 08:14:03;;;;;;;25.33;13.10;;;3.50;99.90;;;;;;4211153;28;20651;-61
2023/01/05 08:16:05;;;;;;;21.13;12.33;;;3.50;99.90;;;;;;4212027;28;20261;-61
2023/01/05 08:18:06;;;;;;;17.03;10.97;;;3.60;99.90;;;;;;4211060;28;20667;-65
2023/01/05 08:20:08;;;;;;;21.53;12.77;;;3.60;99.90;;;;;;4212243;28;20294;-66
2023/01/05 08:22:09;;;;;;;18.80;11.87;;;3.60;99.90;;;;;;4211080;28;20725;-61
2023/01/05 08:24:10;;;;;;;19.67;12.17;;;3.60;99.90;;;;;;4210963;28;20310;-61
2023/01/05 08:26:14;;;;;;;15.67;11.10;;;3.70;99.90;;;;;;4211290;28;20272;-62
2023/01/05 08:28:15;;;;;;;19.83;11.00;;;3.80;99.90;;;;;;4211633;28;20288;-64
2023/01/05 08:30:16;;;;;;;20.40;12.03;;;3.70;99.90;;;;;;4211231;28;20912;-64
2023/01/05 08:32:18;;;;;;;19.80;11.47;;;3.70;99.90;;;;;;4211048;28;20342;-63
2023/01/05 08:34:19;;;;;;;17.03;11.10;;;3.70;99.90;;;;;;4211186;28;20298;-61
2023/01/05 08:36:20;;;;;;;21.83;12.87;;;3.70;99.90;;;;;;4210668;28;20278;-62
2023/01/05 08:38:21;;;;;;;24.43;14.50;;;3.70;99.90;;;;;;4210920;28;20662;-63
2023/01/05 08:40:24;;;;;;;21.43;12.77;;;3.60;99.90;;;;;;4210634;28;20260;-62
2023/01/05 08:42:25;;;;;;;24.63;14.33;;;3.60;99.90;;;;;;4211761;28;20298;-62
2023/01/05 08:44:26;;;;;;;24.53;15.40;;;3.60;99.90;;;;;;4210804;28;20273;-62
2023/01/05 08:46:31;;;;;;;27.80;15.20;;;3.70;99.90;;;;;;4210957;28;20810;-63
2023/01/05 08:48:32;;;;;;;28.60;15.53;;;3.70;99.90;;;;;;4210242;28;20837;-62
2023/01/05 08:50:35;;;;;;;23.00;13.47;;;3.80;99.90;;;;;;4210766;28;20276;-64
2023/01/05 08:52:37;;;;;;;38.37;15.07;;;3.70;99.90;;;;;;4209634;28;20276;-65
2023/01/05 08:54:38;;;;;;;35.67;20.37;;;3.70;99.90;;;;;;4211565;28;20272;-63
2023/01/05 08:56:42;;;;;;;27.80;15.73;;;3.70;99.90;;;;;;4209828;28;20680;-63
2023/01/05 08:58:43;;;;;;;21.03;12.13;;;3.80;99.90;;;;;;4211089;28;20284;-65
2023/01/05 09:00:44;;;;;;;17.10;11.07;;;3.80;99.90;;;;;;4210707;28;20268;-65
2023/01/05 09:02:45;;;;;;;17.73;10.00;;;3.90;99.90;;;;;;4210870;28;20261;-63
2023/01/05 09:04:46;;;;;;;15.53;9.20;;;3.90;99.90;;;;;;4210924;28;20314;-64
2023/01/05 09:06:47;;;;;;;16.10;10.03;;;4.00;99.90;;;;;;4209618;28;20285;-66
2023/01/05 09:08:49;;;;;;;14.57;9.67;;;4.10;99.90;;;;;;4211504;28;20334;-65
2023/01/05 09:10:50;;;;;;;18.50;11.90;;;4.10;99.90;;;;;;4210501;28;20347;-64
2023/01/05 09:12:51;;;;;;;17.40;10.40;;;4.20;99.90;;;;;;4211455;28;20272;-66
2023/01/05 09:14:53;;;;;;;13.20;7.80;;;4.20;99.90;;;;;;4209530;28;20272;-63
2023/01/05 09:16:54;;;;;;;16.57;9.63;;;4.20;99.90;;;;;;4211059;28;20306;-63
2023/01/05 09:18:57;;;;;;;15.17;9.80;;;4.20;99.90;;;;;;4210128;28;20272;-63
2023/01/05 09:20:58;;;;;;;16.87;9.77;;;4.20;99.90;;;;;;4211228;28;20261;-65
2023/01/05 09:22:59;;;;;;;22.53;11.63;;;4.20;99.90;;;;;;4210177;28;20317;-62
2023/01/05 09:25:02;;;;;;;20.83;12.40;;;4.10;99.90;;;;;;4211306;28;20309;-63
2023/01/05 09:27:04;;;;;;;21.17;12.87;;;4.20;99.90;;;;;;4209539;28;20265;-63
2023/01/05 09:29:05;;;;;;;21.43;13.87;;;4.20;99.90;;;;;;4192650;28;20407;-65
2023/01/05 09:31:12;;;;;;;17.60;11.40;;;4.20;99.90;;;;;;4210150;28;20744;-63
2023/01/05 09:33:13;;;;;;;21.07;12.17;;;4.20;99.90;;;;;;4210940;28;20261;-64
2023/01/05 09:35:14;;;;;;;19.57;11.57;;;4.30;99.90;;;;;;4209588;28;20265;-65
2023/01/05 09:37:15;;;;;;;17.97;11.63;;;4.30;99.90;;;;;;4210384;28;20306;-64
2023/01/05 09:39:16;;;;;;;21.07;13.10;;;4.30;99.90;;;;;;4210025;28;20265;-63
2023/01/05 09:41:27;;;;;;;19.53;11.77;;;4.30;99.90;;;;;;4209642;28;20476;-62
2023/01/05 09:43:33;;;;;;;20.13;12.65;;;4.30;99.90;;;;;;4210659;28;20257;-63
2023/01/05 09:45:35;;;;;;;21.07;13.37;;;4.40;99.90;;;;;;4210998;28;20032;-64
2023/01/05 09:47:43;;;;;;;20.40;12.90;;;4.40;99.90;;;;;;4214454;28;20764;-65
2023/01/05 09:49:48;;;;;;;20.90;13.20;;;4.40;99.90;;;;;;4213305;28;20032;-64
2023/01/05 09:51:56;;;;;;;25.00;14.33;;;4.50;99.90;;;;;;4214276;28;20331;-65
2023/01/05 09:53:59;;;;;;;22.10;13.57;;;4.60;99.90;;;;;;4213038;28;20284;-64
2023/01/05 09:56:01;;;;;;;22.70;13.47;;;4.70;99.90;;;;;;4214186;28;20693;-64
2023/01/05 09:58:17;;;;;;;24.13;13.50;;;4.70;99.90;;;;;;4213167;28;20329;-66
2023/01/05 10:00:20;;;;;;;23.83;13.87;;;4.80;99.90;;;;;;4213044;28;20334;-64
2023/01/05 10:02:45;;;;;;;23.10;14.50;;;4.90;99.90;;;;;;4212746;28;20097;-61
2023/01/05 10:04:47;;;;;;;24.17;15.20;;;5.00;99.90;;;;;;4214247;28;20046;-63
2023/01/05 10:06:51;;;;;;;27.17;16.03;;;5.10;99.90;;;;;;4213025;28;20476;-65
2023/01/05 10:08:53;;;;;;;26.27;14.77;;;5.20;99.90;;;;;;4213731;28;20069;-62
2023/01/05 10:13:30;;;;;;;31.23;19.30;;;5.20;99.90;;;;;;4214151;28;20081;-63
2023/01/05 10:15:51;;;;;;;41.37;23.63;;;5.20;99.90;;;;;;4212715;28;20294;-64
2023/01/05 10:17:52;;;;;;;;;;;5.20;99.90;;;;;;4214561;28;20089;-63
2023/01/05 10:19:53;;;;;;;43.53;23.83;;;5.20;99.90;;;;;;4212713;28;19904;-66
2023/01/05 10:22:00;;;;;;;43.63;24.63;;;5.20;99.90;;;;;;4206302;28;20105;-65
2023/01/05 10:24:31;;;;;;;42.57;26.57;;;5.20;99.90;;;;;;4196003;28;20423;-61
2023/01/05 10:26:57;;;;;;;41.43;23.37;;;5.20;99.90;;;;;;4196680;28;20421;-63
2023/01/05 10:29:06;;;;;;;41.47;21.23;;;5.20;99.90;;;;;;4195799;28;20811;-62
2023/01/05 10:31:38;;;;;;;37.83;22.43;;;5.30;99.90;;;;;;4196111;28;20331;-61
2023/01/05 10:33:49;;;;;;;37.50;24.60;;;5.50;99.90;;;;;;4196615;28;20177;-61
2023/01/05 10:36:20;;;;;;;38.43;23.10;;;5.70;99.90;;;;;;4196421;28;20024;-63
2023/01/05 10:38:29;;;;;;;34.10;21.03;;;5.80;99.90;;;;;;4196513;28;20334;-69
2023/01/05 10:41:02;;;;;;;34.90;21.87;;;5.80;99.90;;;;;;4195479;28;20020;-66
2023/01/05 10:43:36;;;;;;;31.67;19.43;;;5.90;99.90;;;;;;4196592;28;20017;-67
2023/01/05 10:45:37;;;;;;;33.80;20.33;;;6.10;99.90;;;;;;4195021;28;20485;-65
2023/01/05 10:47:39;;;;;;;33.83;18.40;;;6.30;99.90;;;;;;4196880;28;20392;-64
2023/01/05 10:49:44;;;;;;;29.90;18.30;;;6.60;99.90;;;;;;4195775;28;20362;-65
2023/01/05 10:51:46;;;;;;;28.50;17.40;;;6.80;99.90;;;;;;4196696;28;20090;-62
2023/01/05 10:53:48;;;;;;;29.03;19.73;;;7.10;99.90;;;;;;4196128;28;20110;-63
2023/01/05 10:56:13;;;;;;;27.37;15.73;;;7.40;99.90;;;;;;4196172;28;20028;-63
2023/01/05 10:58:31;;;;;;;28.37;17.53;;;7.70;99.90;;;;;;4212322;28;20365;-63
2023/01/05 11:00:40;;;;;;;29.30;16.07;;;7.90;99.90;;;;;;4213153;28;20032;-64
2023/01/05 11:02:51;;;;;;;35.25;19.05;;;8.10;99.90;;;;;;4193628;28;20052;-62
2023/01/05 11:04:53;;;;;;;;;;;8.30;99.90;;;;;;4213657;28;20020;-64
2023/01/05 11:07:05;;;;;;;24.50;15.10;;;8.50;99.90;;;;;;4211505;28;19949;-63
2023/01/05 11:09:15;;;;;;;22.03;13.80;;;8.70;99.90;;;;;;4212540;28;20064;-67
2023/01/05 11:11:25;;;;;;;22.60;12.85;;;8.90;99.90;;;;;;4193741;28;20090;-69
2023/01/05 11:13:26;;;;;;;24.73;13.65;;;9.10;99.90;;;;;;4213111;28;20129;-64